»·PEaware :: N2Q KPSP-L05

N2Q :: KPSP-L05

FLIGHT INFORMATION

Flight Status: Arrived
Operator: Privately registered:
United States
More flights under this callsign
Pilot: Drew L. (13237)
Aircraft: PIPER PA-34 SENECA
(PA34)
More flights by this aircraft type
Origin: KPSP Palm Springs Intl
United States
Destination: L05 Kern Valley
United States
More flights between these airports :: More routes between these airports
Route: +CATH1 PSP SOGGI V386 APLES HELDE
File this flight plan on PilotEdge
Remarks:
Altitude:
(Current/Filed)
20,000ft
Speed:
(Current/Filed)
455kts
Departed: 10-Dec-17 05:57 PM
Arrived: 10-Dec-17 07:06 PM
Distance/Time
Traveled:
148nm/1:09
Distance/Time
To Go:
Arrived

Flight Plot

Page will automatically refresh every two minutes.

Flight plan parsing failed; only flown route is shown


Map Options




Map Legend


Flown Route
Filed Route
Departure Airport
Arrival Airport
Navaid (VOR, NDB)
Fix

Horizontal Profiles

Position Reports

Time Latitude Longitude Heading Altitude Ground
Speed
10-Dec-17 17:14 33.825352 -116.509543 90 479ft 0kts
10-Dec-17 17:15 33.825352 -116.509542 90 479ft 0kts
10-Dec-17 17:16 33.825352 -116.509542 90 479ft 0kts
10-Dec-17 17:16 33.825352 -116.509542 90 479ft 0kts
10-Dec-17 17:18 33.825352 -116.509542 90 479ft 0kts
10-Dec-17 17:19 33.825352 -116.509542 90 479ft 0kts
10-Dec-17 17:20 33.825352 -116.509542 90 479ft 0kts
10-Dec-17 17:20 33.825352 -116.509542 90 479ft 0kts
10-Dec-17 17:22 33.825352 -116.509542 90 479ft 0kts
10-Dec-17 17:22 33.825352 -116.509542 90 479ft 0kts
10-Dec-17 17:24 33.825352 -116.509542 90 479ft 0kts
10-Dec-17 17:24 33.825352 -116.509542 90 479ft 0kts
10-Dec-17 17:25 33.825352 -116.509542 90 479ft 0kts
10-Dec-17 17:27 33.825352 -116.509542 90 479ft 0kts
10-Dec-17 17:27 33.825352 -116.509542 90 479ft 0kts
10-Dec-17 17:28 33.825352 -116.509542 90 479ft 0kts
10-Dec-17 17:29 33.825352 -116.509542 90 479ft 0kts
10-Dec-17 17:30 33.825352 -116.509542 90 479ft 0kts
10-Dec-17 17:31 33.825352 -116.509542 90 479ft 0kts
10-Dec-17 17:32 33.825352 -116.509542 90 479ft 0kts
10-Dec-17 17:33 33.825352 -116.509542 90 479ft 0kts
10-Dec-17 17:34 33.825352 -116.509522 90 479ft 0kts
10-Dec-17 17:35 33.825352 -116.509522 90 479ft 0kts
10-Dec-17 17:36 33.825352 -116.509522 90 479ft 0kts
10-Dec-17 17:37 33.825352 -116.509522 90 479ft 0kts
10-Dec-17 17:38 33.825352 -116.509522 90 479ft 0kts
10-Dec-17 17:39 33.825352 -116.509522 90 479ft 0kts
10-Dec-17 17:40 33.825352 -116.509522 90 479ft 0kts
10-Dec-17 17:41 33.825352 -116.509522 90 479ft 0kts
10-Dec-17 17:42 33.825352 -116.509522 90 479ft 0kts
10-Dec-17 17:43 33.825352 -116.509522 90 479ft 0kts
10-Dec-17 17:44 33.825352 -116.509522 90 479ft 0kts
10-Dec-17 17:45 33.825352 -116.509522 90 479ft 0kts
10-Dec-17 17:46 33.825352 -116.509522 90 479ft 0kts
10-Dec-17 17:47 33.825352 -116.509522 90 479ft 0kts
10-Dec-17 17:48 33.825352 -116.509522 90 479ft 0kts
10-Dec-17 17:49 33.825351 -116.509469 90 479ft 4kts
10-Dec-17 17:50 33.825335 -116.506823 88 479ft 0kts
10-Dec-17 17:51 33.825335 -116.506823 88 479ft 0kts
10-Dec-17 17:52 33.825335 -116.506823 88 479ft 0kts
10-Dec-17 17:53 33.825335 -116.506823 88 479ft 0kts
10-Dec-17 17:54 33.825335 -116.506823 88 479ft 0kts
10-Dec-17 17:55 33.824270 -116.504872 141 479ft 18kts
10-Dec-17 17:56 33.819944 -116.501031 142 479ft 19kts
10-Dec-17 17:57 33.818527 -116.498961 89 479ft 0kts
10-Dec-17 17:58 33.818797 -116.498157 44 479ft 10kts
10-Dec-17 17:59 33.819129 -116.498290 323 479ft 0kts
10-Dec-17 18:00 33.819129 -116.498290 323 479ft 0kts
10-Dec-17 18:01 33.820138 -116.499179 324 479ft 24kts
10-Dec-17 18:02 33.839668 -116.516071 322 1262ft 101kts
10-Dec-17 18:03 33.864488 -116.539902 321 2345ft 123kts
10-Dec-17 18:04 33.894295 -116.567022 344 3111ft 143kts
10-Dec-17 18:05 33.904528 -116.537088 111 4454ft 113kts
10-Dec-17 18:06 33.893526 -116.503412 110 5844ft 105kts
10-Dec-17 18:07 33.882924 -116.470340 110 7080ft 107kts
10-Dec-17 18:08 33.872564 -116.437773 110 8288ft 104kts
10-Dec-17 18:09 33.859158 -116.405019 112 9297ft 113kts
10-Dec-17 18:10 33.863634 -116.375777 1 9871ft 138kts
10-Dec-17 18:11 33.896067 -116.402086 333 10661ft 138kts
10-Dec-17 18:12 33.929465 -116.421255 341 11517ft 130kts
10-Dec-17 18:13 33.962131 -116.436712 343 12373ft 125kts
10-Dec-17 18:14 33.993530 -116.450873 344 13219ft 122kts
10-Dec-17 18:15 34.024802 -116.464804 344 14082ft 119kts
10-Dec-17 18:16 34.055089 -116.478252 345 14944ft 114kts
10-Dec-17 18:17 34.083793 -116.491007 345 15802ft 106kts
10-Dec-17 18:18 34.105954 -116.500823 345 16390ft 108kts
10-Dec-17 18:19 34.135754 -116.514000 345 16976ft 120kts
10-Dec-17 18:20 34.167102 -116.527975 344 17541ft 125kts
10-Dec-17 18:21 34.200809 -116.542990 344 18312ft 134kts
10-Dec-17 18:22 34.235667 -116.558603 344 19297ft 134kts
10-Dec-17 18:23 34.271840 -116.574664 344 19932ft 158kts
10-Dec-17 18:24 34.317827 -116.595166 343 19926ft 189kts
10-Dec-17 18:25 34.366670 -116.617143 343 19976ft 183kts
10-Dec-17 18:26 34.414515 -116.638587 343 19938ft 188kts
10-Dec-17 18:27 34.463705 -116.660659 343 19896ft 191kts
10-Dec-17 18:28 34.503967 -116.695939 279 19903ft 194kts
10-Dec-17 18:29 34.511120 -116.761029 275 19897ft 195kts
10-Dec-17 18:31 34.517460 -116.826337 275 19897ft 195kts
10-Dec-17 18:32 34.523689 -116.890614 275 19897ft 195kts
10-Dec-17 18:33 34.530001 -116.956086 275 19897ft 195kts
10-Dec-17 18:34 34.536072 -117.019432 275 19897ft 196kts
10-Dec-17 18:35 34.542224 -117.083930 275 19898ft 196kts
10-Dec-17 18:36 34.549668 -117.149040 298 19891ft 196kts
10-Dec-17 18:37 34.583003 -117.201085 310 19898ft 196kts
10-Dec-17 18:38 34.616421 -117.250863 310 20076ft 189kts
10-Dec-17 18:39 34.646471 -117.295726 310 20088ft 193kts
10-Dec-17 18:40 34.680217 -117.346203 310 20088ft 194kts
10-Dec-17 18:41 34.715779 -117.393957 323 20088ft 194kts
10-Dec-17 18:42 34.757509 -117.435475 323 20088ft 194kts
10-Dec-17 18:43 34.799211 -117.477080 323 20088ft 194kts
10-Dec-17 18:44 34.841357 -117.519191 323 19903ft 202kts
10-Dec-17 18:45 34.884241 -117.562163 323 19872ft 198kts
10-Dec-17 18:46 34.926354 -117.604393 323 19873ft 197kts
10-Dec-17 18:47 34.968505 -117.646715 323 19873ft 196kts
10-Dec-17 18:48 34.999460 -117.677828 322 19870ft 195kts
10-Dec-17 18:49 35.036997 -117.715611 322 19870ft 195kts
10-Dec-17 18:50 35.078782 -117.757718 322 19870ft 195kts
10-Dec-17 18:51 35.114912 -117.794177 322 19869ft 195kts
10-Dec-17 18:52 35.153941 -117.833620 322 19499ft 199kts
10-Dec-17 18:53 35.196501 -117.876642 322 18494ft 200kts
10-Dec-17 18:54 35.238389 -117.919101 322 17212ft 203kts
10-Dec-17 18:55 35.281421 -117.962770 322 15737ft 202kts
10-Dec-17 18:56 35.323178 -118.005203 322 14684ft 186kts
10-Dec-17 18:57 35.361689 -118.044362 322 14036ft 176kts
10-Dec-17 18:58 35.398775 -118.082116 322 13394ft 172kts
10-Dec-17 18:59 35.430141 -118.114093 322 12715ft 177kts
10-Dec-17 19:00 35.467509 -118.152245 322 11753ft 183kts
10-Dec-17 19:01 35.506371 -118.191974 322 10763ft 183kts
10-Dec-17 19:02 35.545019 -118.231540 322 9940ft 174kts
10-Dec-17 19:03 35.584994 -118.262156 337 9375ft 170kts
10-Dec-17 19:04 35.624456 -118.286621 337 8062ft 143kts
10-Dec-17 19:05 35.650309 -118.316162 275 6830ft 148kts
10-Dec-17 19:06 35.650223 -118.363720 273 5676ft 131kts
10-Dec-17 19:07 35.654800 -118.406820 280 4683ft 124kts
10-Dec-17 19:08 35.668701 -118.443030 326 3847ft 112kts
10-Dec-17 19:09 35.696910 -118.447671 357 3841ft 101kts
10-Dec-17 19:10 35.726678 -118.441740 26 3834ft 115kts
10-Dec-17 19:11 35.747643 -118.423065 134 3309ft 97kts
10-Dec-17 19:12 35.728022 -118.419771 187 2615ft 24kts
10-Dec-17 19:13 35.724988 -118.418180 150 2615ft 11kts
10-Dec-17 19:14 35.722394 -118.417775 261 2615ft 4kts
10-Dec-17 19:15 35.722060 -118.418042 185 2615ft 0kts
10-Dec-17 19:16 35.722060 -118.418042 185 2615ft 0kts
10-Dec-17 19:17 35.722060 -118.418042 185 2615ft 0kts
10-Dec-17 19:18 35.722060 -118.418042 185 2615ft 0kts
10-Dec-17 19:19 35.722060 -118.418042 185 2615ft 0kts
10-Dec-17 19:20 35.722060 -118.418042 185 2615ft 0kts
10-Dec-17 19:21 35.722060 -118.418042 185 2615ft 0kts
10-Dec-17 19:22 35.722060 -118.418042 185 2615ft 0kts

Navigation Log

Ident Type
Flight plan parsing failed, navigation log unavailable